sensor_id;sensor_type;location;lat;lon;timestamp;pressure;altitude;pressure_sealevel;temperature;humidity
50933;BME280;36921;49.006;9.292;2023-03-18T00:02:24;98331.88;;;7.94;100.00
50933;BME280;36921;49.006;9.292;2023-03-18T00:04:50;98309.19;;;7.75;100.00
50933;BME280;36921;49.006;9.292;2023-03-18T00:07:15;98311.88;;;7.75;100.00
50933;BME280;36921;49.006;9.292;2023-03-18T00:09:41;98323.31;;;7.77;100.00
50933;BME280;36921;49.006;9.292;2023-03-18T00:12:06;98321.44;;;7.77;100.00
50933;BME280;36921;49.006;9.292;2023-03-18T00:14:34;98315.38;;;7.68;100.00
50933;BME280;36921;49.006;9.292;2023-03-18T00:17:00;98303.09;;;7.59;100.00
50933;BME280;36921;49.006;9.292;2023-03-18T00:19:25;98307.94;;;7.71;100.00
50933;BME280;36921;49.006;9.292;2023-03-18T00:21:50;98314.94;;;7.65;100.00
50933;BME280;36921;49.006;9.292;2023-03-18T00:24:16;98317.84;;;7.63;100.00
50933;BME280;36921;49.006;9.292;2023-03-18T00:26:42;98320.72;;;7.62;100.00
50933;BME280;36921;49.006;9.292;2023-03-18T00:29:08;98314.66;;;7.53;100.00
50933;BME280;36921;49.006;9.292;2023-03-18T00:31:34;98312.50;;;7.42;100.00
50933;BME280;36921;49.006;9.292;2023-03-18T00:34:00;98335.94;;;7.48;100.00
50933;BME280;36921;49.006;9.292;2023-03-18T00:36:26;98314.22;;;7.28;100.00
50933;BME280;36921;49.006;9.292;2023-03-18T00:38:53;98311.75;;;7.27;100.00
50933;BME280;36921;49.006;9.292;2023-03-18T00:41:31;98343.38;;;7.46;100.00
50933;BME280;36921;49.006;9.292;2023-03-18T00:44:01;98352.09;;;7.48;100.00
50933;BME280;36921;49.006;9.292;2023-03-18T00:46:34;98336.63;;;7.29;100.00
50933;BME280;36921;49.006;9.292;2023-03-18T00:49:02;98356.28;;;7.29;100.00
50933;BME280;36921;49.006;9.292;2023-03-18T00:51:31;98348.13;;;7.22;100.00
50933;BME280;36921;49.006;9.292;2023-03-18T00:53:59;98350.31;;;7.34;100.00
50933;BME280;36921;49.006;9.292;2023-03-18T00:56:26;98349.94;;;7.37;100.00
50933;BME280;36921;49.006;9.292;2023-03-18T00:58:53;98354.66;;;7.35;100.00
50933;BME280;36921;49.006;9.292;2023-03-18T01:01:20;98361.00;;;7.27;100.00
50933;BME280;36921;49.006;9.292;2023-03-18T01:03:46;98362.63;;;7.21;100.00
50933;BME280;36921;49.006;9.292;2023-03-18T01:06:17;98361.84;;;7.28;100.00
50933;BME280;36921;49.006;9.292;2023-03-18T01:08:43;98353.50;;;7.22;100.00
50933;BME280;36921;49.006;9.292;2023-03-18T01:11:09;98342.25;;;7.12;100.00
50933;BME280;36921;49.006;9.292;2023-03-18T01:13:35;98360.50;;;7.17;100.00
50933;BME280;36921;49.006;9.292;2023-03-18T01:16:02;98356.34;;;7.14;100.00
50933;BME280;36921;49.006;9.292;2023-03-18T01:18:28;98344.75;;;7.14;100.00
50933;BME280;36921;49.006;9.292;2023-03-18T01:20:55;98347.88;;;7.17;100.00
50933;BME280;36921;49.006;9.292;2023-03-18T01:23:21;98335.34;;;7.03;100.00
50933;BME280;36921;49.006;9.292;2023-03-18T01:25:46;98352.63;;;7.15;100.00
50933;BME280;36921;49.006;9.292;2023-03-18T01:28:12;98361.31;;;7.17;100.00
50933;BME280;36921;49.006;9.292;2023-03-18T01:30:38;98361.31;;;7.17;100.00
50933;BME280;36921;49.006;9.292;2023-03-18T01:33:04;98351.75;;;7.08;100.00
50933;BME280;36921;49.006;9.292;2023-03-18T01:35:33;98362.22;;;7.24;100.00
50933;BME280;36921;49.006;9.292;2023-03-18T01:37:59;98331.63;;;7.04;100.00
50933;BME280;36921;49.006;9.292;2023-03-18T01:40:25;98345.56;;;7.14;100.00
50933;BME280;36921;49.006;9.292;2023-03-18T01:43:24;98352.44;;;7.17;100.00
50933;BME280;36921;49.006;9.292;2023-03-18T01:45:52;98344.06;;;7.05;100.00
50933;BME280;36921;49.006;9.292;2023-03-18T01:48:22;98339.69;;;7.04;100.00
50933;BME280;36921;49.006;9.292;2023-03-18T01:50:54;98356.28;;;7.08;100.00
50933;BME280;36921;49.006;9.292;2023-03-18T01:53:21;98353.91;;;6.98;100.00
50933;BME280;36921;49.006;9.292;2023-03-18T01:55:48;98333.09;;;6.85;100.00
50933;BME280;36921;49.006;9.292;2023-03-18T01:58:19;98365.31;;;7.00;100.00
50933;BME280;36921;49.006;9.292;2023-03-18T02:00:51;98351.59;;;6.95;100.00
50933;BME280;36921;49.006;9.292;2023-03-18T02:03:19;98359.84;;;6.93;100.00
50933;BME280;36921;49.006;9.292;2023-03-18T02:05:47;98364.28;;;7.01;100.00
50933;BME280;36921;49.006;9.292;2023-03-18T02:08:14;98356.38;;;6.99;100.00
50933;BME280;36921;49.006;9.292;2023-03-18T02:10:39;98355.38;;;7.00;100.00
50933;BME280;36921;49.006;9.292;2023-03-18T02:13:07;98355.66;;;7.06;100.00
50933;BME280;36921;49.006;9.292;2023-03-18T02:15:38;98360.81;;;7.07;100.00
50933;BME280;36921;49.006;9.292;2023-03-18T02:18:16;98363.88;;;7.04;100.00
50933;BME280;36921;49.006;9.292;2023-03-18T02:21:11;98366.59;;;7.04;100.00
50933;BME280;36921;49.006;9.292;2023-03-18T02:23:52;98370.22;;;6.96;100.00
50933;BME280;36921;49.006;9.292;2023-03-18T02:26:51;98360.06;;;6.92;100.00
50933;BME280;36921;49.006;9.292;2023-03-18T02:29:20;98362.28;;;6.88;100.00
50933;BME280;36921;49.006;9.292;2023-03-18T02:31:46;98362.75;;;6.92;100.00
50933;BME280;36921;49.006;9.292;2023-03-18T02:34:13;98319.41;;;6.65;100.00
50933;BME280;36921;49.006;9.292;2023-03-18T02:36:39;98359.06;;;6.78;100.00
50933;BME280;36921;49.006;9.292;2023-03-18T02:39:06;98359.19;;;6.70;100.00
50933;BME280;36921;49.006;9.292;2023-03-18T02:41:33;98359.56;;;6.67;100.00
50933;BME280;36921;49.006;9.292;2023-03-18T02:44:00;98363.47;;;6.64;100.00
50933;BME280;36921;49.006;9.292;2023-03-18T02:49:10;98355.97;;;6.59;100.00
50933;BME280;36921;49.006;9.292;2023-03-18T02:51:36;98365.22;;;6.57;100.00
50933;BME280;36921;49.006;9.292;2023-03-18T02:54:06;98370.00;;;6.55;100.00
50933;BME280;36921;49.006;9.292;2023-03-18T02:56:33;98361.66;;;6.50;100.00
50933;BME280;36921;49.006;9.292;2023-03-18T02:58:58;98358.72;;;6.30;100.00
50933;BME280;36921;49.006;9.292;2023-03-18T03:01:23;98351.56;;;6.22;100.00
50933;BME280;36921;49.006;9.292;2023-03-18T03:03:49;98364.91;;;6.15;100.00
50933;BME280;36921;49.006;9.292;2023-03-18T03:06:15;98366.38;;;6.18;100.00
50933;BME280;36921;49.006;9.292;2023-03-18T03:08:41;98387.03;;;6.18;100.00
50933;BME280;36921;49.006;9.292;2023-03-18T03:11:07;98367.59;;;6.15;100.00
50933;BME280;36921;49.006;9.292;2023-03-18T03:13:33;98372.41;;;6.20;100.00
50933;BME280;36921;49.006;9.292;2023-03-18T03:15:58;98387.16;;;6.24;100.00
50933;BME280;36921;49.006;9.292;2023-03-18T03:18:24;98388.25;;;6.15;100.00
50933;BME280;36921;49.006;9.292;2023-03-18T03:20:50;98389.75;;;6.03;100.00
50933;BME280;36921;49.006;9.292;2023-03-18T03:23:17;98390.47;;;5.97;100.00
50933;BME280;36921;49.006;9.292;2023-03-18T03:25:42;98402.53;;;6.01;100.00
50933;BME280;36921;49.006;9.292;2023-03-18T03:28:10;98402.91;;;5.98;100.00
50933;BME280;36921;49.006;9.292;2023-03-18T03:30:36;98388.81;;;5.96;100.00
50933;BME280;36921;49.006;9.292;2023-03-18T03:33:02;98400.50;;;6.03;100.00
50933;BME280;36921;49.006;9.292;2023-03-18T03:35:27;98395.94;;;6.03;100.00
50933;BME280;36921;49.006;9.292;2023-03-18T03:37:53;98404.84;;;6.04;100.00
50933;BME280;36921;49.006;9.292;2023-03-18T03:40:19;98410.28;;;5.96;100.00
50933;BME280;36921;49.006;9.292;2023-03-18T03:42:45;98414.88;;;5.87;100.00
50933;BME280;36921;49.006;9.292;2023-03-18T03:45:13;98416.13;;;5.76;100.00
50933;BME280;36921;49.006;9.292;2023-03-18T03:47:39;98403.16;;;5.65;100.00
50933;BME280;36921;49.006;9.292;2023-03-18T03:50:05;98404.34;;;5.62;100.00
50933;BME280;36921;49.006;9.292;2023-03-18T03:52:31;98428.94;;;5.74;100.00
50933;BME280;36921;49.006;9.292;2023-03-18T03:54:57;98422.69;;;5.74;100.00
50933;BME280;36921;49.006;9.292;2023-03-18T03:57:24;98436.31;;;5.72;100.00
50933;BME280;36921;49.006;9.292;2023-03-18T03:59:50;98442.75;;;5.63;100.00
50933;BME280;36921;49.006;9.292;2023-03-18T04:02:16;98403.69;;;5.45;100.00
50933;BME280;36921;49.006;9.292;2023-03-18T04:04:42;98402.38;;;5.41;100.00
50933;BME280;36921;49.006;9.292;2023-03-18T04:07:09;98390.34;;;5.37;100.00
50933;BME280;36921;49.006;9.292;2023-03-18T04:09:36;98414.41;;;5.45;100.00
50933;BME280;36921;49.006;9.292;2023-03-18T04:12:01;98416.06;;;5.46;100.00
50933;BME280;36921;49.006;9.292;2023-03-18T04:14:27;98425.25;;;5.52;100.00
50933;BME280;36921;49.006;9.292;2023-03-18T04:16:53;98412.72;;;5.44;100.00
50933;BME280;36921;49.006;9.292;2023-03-18T04:19:22;98424.31;;;5.45;100.00
50933;BME280;36921;49.006;9.292;2023-03-18T04:21:48;98402.78;;;5.30;100.00
50933;BME280;36921;49.006;9.292;2023-03-18T04:24:14;98418.81;;;5.38;100.00
50933;BME280;36921;49.006;9.292;2023-03-18T04:26:39;98407.78;;;5.33;100.00
50933;BME280;36921;49.006;9.292;2023-03-18T04:29:04;98409.28;;;5.36;100.00
50933;BME280;36921;49.006;9.292;2023-03-18T04:31:30;98397.00;;;5.18;100.00
50933;BME280;36921;49.006;9.292;2023-03-18T04:33:57;98427.94;;;5.29;100.00
50933;BME280;36921;49.006;9.292;2023-03-18T04:36:24;98418.66;;;5.17;100.00
50933;BME280;36921;49.006;9.292;2023-03-18T04:38:50;98418.34;;;5.12;100.00
50933;BME280;36921;49.006;9.292;2023-03-18T04:41:16;98428.81;;;4.98;100.00
50933;BME280;36921;49.006;9.292;2023-03-18T04:43:41;98432.38;;;4.91;100.00
50933;BME280;36921;49.006;9.292;2023-03-18T04:46:08;98439.09;;;4.87;100.00
50933;BME280;36921;49.006;9.292;2023-03-18T04:48:35;98436.94;;;4.82;100.00
50933;BME280;36921;49.006;9.292;2023-03-18T04:51:00;98421.25;;;4.71;100.00
50933;BME280;36921;49.006;9.292;2023-03-18T04:53:26;98426.66;;;4.63;100.00
50933;BME280;36921;49.006;9.292;2023-03-18T04:55:51;98430.16;;;4.63;100.00
50933;BME280;36921;49.006;9.292;2023-03-18T04:58:17;98442.00;;;4.77;100.00
50933;BME280;36921;49.006;9.292;2023-03-18T05:00:42;98436.34;;;4.64;100.00
50933;BME280;36921;49.006;9.292;2023-03-18T05:03:08;98447.13;;;4.55;100.00
50933;BME280;36921;49.006;9.292;2023-03-18T05:05:33;98448.28;;;4.53;100.00
50933;BME280;36921;49.006;9.292;2023-03-18T05:07:59;98433.44;;;4.42;100.00
50933;BME280;36921;49.006;9.292;2023-03-18T05:10:25;98432.78;;;4.40;100.00
50933;BME280;36921;49.006;9.292;2023-03-18T05:12:50;98445.13;;;4.49;100.00
50933;BME280;36921;49.006;9.292;2023-03-18T05:15:16;98435.44;;;4.40;100.00
50933;BME280;36921;49.006;9.292;2023-03-18T05:17:41;98441.28;;;4.52;100.00
50933;BME280;36921;49.006;9.292;2023-03-18T05:20:08;98429.09;;;4.41;100.00
50933;BME280;36921;49.006;9.292;2023-03-18T05:22:34;98439.00;;;4.41;100.00
50933;BME280;36921;49.006;9.292;2023-03-18T05:24:59;98432.16;;;4.30;100.00
50933;BME280;36921;49.006;9.292;2023-03-18T05:27:26;98431.97;;;4.31;100.00
50933;BME280;36921;49.006;9.292;2023-03-18T05:29:52;98417.47;;;4.17;100.00
50933;BME280;36921;49.006;9.292;2023-03-18T05:32:17;98430.81;;;4.26;100.00
50933;BME280;36921;49.006;9.292;2023-03-18T05:34:43;98439.56;;;4.20;100.00
50933;BME280;36921;49.006;9.292;2023-03-18T05:37:11;98412.47;;;4.14;100.00
50933;BME280;36921;49.006;9.292;2023-03-18T05:39:37;98437.19;;;4.25;100.00
50933;BME280;36921;49.006;9.292;2023-03-18T05:42:03;98437.50;;;4.22;100.00
50933;BME280;36921;49.006;9.292;2023-03-18T05:44:30;98430.66;;;4.19;100.00
50933;BME280;36921;49.006;9.292;2023-03-18T05:46:55;98436.81;;;4.36;100.00
50933;BME280;36921;49.006;9.292;2023-03-18T05:49:21;98410.59;;;4.23;100.00
50933;BME280;36921;49.006;9.292;2023-03-18T05:51:47;98421.78;;;4.27;100.00
50933;BME280;36921;49.006;9.292;2023-03-18T05:54:13;98436.94;;;4.43;100.00
50933;BME280;36921;49.006;9.292;2023-03-18T05:56:40;98423.19;;;4.54;100.00
50933;BME280;36921;49.006;9.292;2023-03-18T05:59:07;98424.81;;;4.63;100.00
50933;BME280;36921;49.006;9.292;2023-03-18T06:01:34;98442.00;;;4.77;100.00
50933;BME280;36921;49.006;9.292;2023-03-18T06:04:00;98436.81;;;4.75;100.00
50933;BME280;36921;49.006;9.292;2023-03-18T06:06:26;98443.63;;;4.86;100.00
50933;BME280;36921;49.006;9.292;2023-03-18T06:08:52;98445.44;;;4.94;100.00
50933;BME280;36921;49.006;9.292;2023-03-18T06:11:20;98445.75;;;4.99;100.00
50933;BME280;36921;49.006;9.292;2023-03-18T06:13:46;98441.81;;;5.10;100.00
50933;BME280;36921;49.006;9.292;2023-03-18T06:16:11;98453.91;;;5.28;100.00
50933;BME280;36921;49.006;9.292;2023-03-18T06:18:37;98438.38;;;5.47;100.00
50933;BME280;36921;49.006;9.292;2023-03-18T06:21:03;98449.63;;;5.65;100.00
50933;BME280;36921;49.006;9.292;2023-03-18T06:23:29;98431.03;;;5.79;100.00
50933;BME280;36921;49.006;9.292;2023-03-18T06:25:55;98436.94;;;5.97;100.00
50933;BME280;36921;49.006;9.292;2023-03-18T06:28:21;98438.94;;;6.33;100.00
50933;BME280;36921;49.006;9.292;2023-03-18T06:30:46;98427.09;;;6.78;100.00
50933;BME280;36921;49.006;9.292;2023-03-18T06:33:12;98437.19;;;7.28;100.00
50933;BME280;36921;49.006;9.292;2023-03-18T06:35:38;98427.00;;;7.66;100.00
50933;BME280;36921;49.006;9.292;2023-03-18T06:38:03;98427.38;;;8.95;100.00
50933;BME280;36921;49.006;9.292;2023-03-18T06:40:29;98425.63;;;10.49;100.00
50933;BME280;36921;49.006;9.292;2023-03-18T06:42:54;98429.53;;;11.50;100.00
50933;BME280;36921;49.006;9.292;2023-03-18T06:45:19;98418.22;;;11.91;100.00
50933;BME280;36921;49.006;9.292;2023-03-18T06:47:46;98424.97;;;12.50;100.00
50933;BME280;36921;49.006;9.292;2023-03-18T06:50:14;98429.03;;;12.41;100.00
50933;BME280;36921;49.006;9.292;2023-03-18T06:52:39;98432.59;;;12.17;100.00
50933;BME280;36921;49.006;9.292;2023-03-18T06:55:05;98440.78;;;12.10;100.00
50933;BME280;36921;49.006;9.292;2023-03-18T06:57:31;98437.00;;;12.36;100.00
50933;BME280;36921;49.006;9.292;2023-03-18T06:59:57;98439.47;;;12.63;100.00
50933;BME280;36921;49.006;9.292;2023-03-18T07:02:22;98426.44;;;13.92;100.00
50933;BME280;36921;49.006;9.292;2023-03-18T07:04:49;98426.22;;;15.17;95.85
50933;BME280;36921;49.006;9.292;2023-03-18T07:07:14;98436.66;;;16.28;80.83
50933;BME280;36921;49.006;9.292;2023-03-18T07:09:39;98427.03;;;16.98;71.04
50933;BME280;36921;49.006;9.292;2023-03-18T07:12:05;98434.84;;;19.04;63.98
50933;BME280;36921;49.006;9.292;2023-03-18T07:14:31;98431.13;;;21.05;54.52
50933;BME280;36921;49.006;9.292;2023-03-18T07:16:56;98437.47;;;20.95;54.18
50933;BME280;36921;49.006;9.292;2023-03-18T07:19:22;98439.13;;;20.96;52.63
50933;BME280;36921;49.006;9.292;2023-03-18T07:21:48;98432.34;;;20.48;51.47
50933;BME280;36921;49.006;9.292;2023-03-18T07:24:14;98421.34;;;20.43;50.70
50933;BME280;36921;49.006;9.292;2023-03-18T07:26:40;98433.16;;;20.43;49.96
50933;BME280;36921;49.006;9.292;2023-03-18T07:29:06;98425.94;;;19.45;52.42
50933;BME280;36921;49.006;9.292;2023-03-18T07:31:31;98426.56;;;19.83;52.11
50933;BME280;36921;49.006;9.292;2023-03-18T07:33:56;98437.72;;;21.14;50.39
50933;BME280;36921;49.006;9.292;2023-03-18T07:36:22;98432.34;;;22.27;47.23
50933;BME280;36921;49.006;9.292;2023-03-18T07:38:48;98446.41;;;23.13;46.16
50933;BME280;36921;49.006;9.292;2023-03-18T07:41:13;98437.59;;;23.11;45.50
50933;BME280;36921;49.006;9.292;2023-03-18T07:43:38;98436.09;;;24.19;43.61
50933;BME280;36921;49.006;9.292;2023-03-18T07:46:04;98430.16;;;25.69;41.37
50933;BME280;36921;49.006;9.292;2023-03-18T07:48:30;98442.13;;;25.78;40.26
50933;BME280;36921;49.006;9.292;2023-03-18T07:50:55;98434.50;;;26.96;38.90
50933;BME280;36921;49.006;9.292;2023-03-18T07:53:21;98434.69;;;27.57;37.21
50933;BME280;36921;49.006;9.292;2023-03-18T07:55:46;98434.25;;;28.25;36.31
50933;BME280;36921;49.006;9.292;2023-03-18T07:58:12;98434.06;;;30.13;34.25
50933;BME280;36921;49.006;9.292;2023-03-18T08:00:38;98426.03;;;30.11;33.32
50933;BME280;36921;49.006;9.292;2023-03-18T08:03:03;98441.81;;;30.28;32.48
50933;BME280;36921;49.006;9.292;2023-03-18T08:05:30;98440.78;;;29.40;33.10
50933;BME280;36921;49.006;9.292;2023-03-18T08:07:55;98438.13;;;29.74;32.82
50933;BME280;36921;49.006;9.292;2023-03-18T08:10:21;98439.13;;;29.39;32.80
50933;BME280;36921;49.006;9.292;2023-03-18T08:12:46;98438.63;;;28.69;32.94
50933;BME280;36921;49.006;9.292;2023-03-18T08:15:12;98429.03;;;30.27;31.47
50933;BME280;36921;49.006;9.292;2023-03-18T08:17:38;98436.25;;;31.44;28.93
50933;BME280;36921;49.006;9.292;2023-03-18T08:20:04;98438.03;;;33.02;29.67
50933;BME280;36921;49.006;9.292;2023-03-18T08:22:30;98444.34;;;33.30;29.45
50933;BME280;36921;49.006;9.292;2023-03-18T08:24:56;98444.25;;;33.11;29.86
50933;BME280;36921;49.006;9.292;2023-03-18T08:27:22;98441.44;;;32.23;29.67
50933;BME280;36921;49.006;9.292;2023-03-18T08:29:48;98449.91;;;31.98;29.56
50933;BME280;36921;49.006;9.292;2023-03-18T08:32:14;98444.25;;;31.58;28.25
50933;BME280;36921;49.006;9.292;2023-03-18T08:34:44;98453.44;;;31.21;28.83
50933;BME280;36921;49.006;9.292;2023-03-18T08:37:10;98442.53;;;30.71;27.86
50933;BME280;36921;49.006;9.292;2023-03-18T08:39:37;98444.34;;;31.86;26.72
50933;BME280;36921;49.006;9.292;2023-03-18T08:42:04;98451.13;;;31.48;27.35
50933;BME280;36921;49.006;9.292;2023-03-18T08:44:29;98439.75;;;32.34;25.62
50933;BME280;36921;49.006;9.292;2023-03-18T08:46:55;98450.97;;;31.94;25.98
50933;BME280;36921;49.006;9.292;2023-03-18T08:49:22;98437.69;;;30.47;26.02
50933;BME280;36921;49.006;9.292;2023-03-18T08:51:49;98451.81;;;29.58;27.03
50933;BME280;36921;49.006;9.292;2023-03-18T08:54:15;98448.47;;;30.15;27.14
50933;BME280;36921;49.006;9.292;2023-03-18T08:56:40;98437.91;;;30.00;27.41
50933;BME280;36921;49.006;9.292;2023-03-18T08:59:06;98440.31;;;29.89;27.27
50933;BME280;36921;49.006;9.292;2023-03-18T09:01:32;98430.47;;;30.91;26.62
50933;BME280;36921;49.006;9.292;2023-03-18T09:03:58;98429.44;;;31.33;26.23
50933;BME280;36921;49.006;9.292;2023-03-18T09:06:24;98429.22;;;31.01;25.65
50933;BME280;36921;49.006;9.292;2023-03-18T09:08:50;98427.97;;;30.65;26.58
50933;BME280;36921;49.006;9.292;2023-03-18T09:11:16;98414.28;;;31.71;26.08
50933;BME280;36921;49.006;9.292;2023-03-18T09:13:42;98420.34;;;31.73;25.39
50933;BME280;36921;49.006;9.292;2023-03-18T09:16:08;98420.06;;;32.02;25.49
50933;BME280;36921;49.006;9.292;2023-03-18T09:18:35;98425.00;;;31.69;26.39
50933;BME280;36921;49.006;9.292;2023-03-18T09:21:00;98421.72;;;34.10;25.06
50933;BME280;36921;49.006;9.292;2023-03-18T09:23:27;98427.06;;;33.28;24.59
50933;BME280;36921;49.006;9.292;2023-03-18T09:25:52;98426.13;;;34.92;24.41
50933;BME280;36921;49.006;9.292;2023-03-18T09:28:19;98424.31;;;35.26;23.53
50933;BME280;36921;49.006;9.292;2023-03-18T09:30:45;98422.66;;;34.56;23.71
50933;BME280;36921;49.006;9.292;2023-03-18T09:33:11;98424.88;;;34.47;24.20
50933;BME280;36921;49.006;9.292;2023-03-18T09:35:38;98418.09;;;35.14;23.83
50933;BME280;36921;49.006;9.292;2023-03-18T09:38:04;98415.97;;;36.13;23.62
50933;BME280;36921;49.006;9.292;2023-03-18T09:40:35;98416.88;;;35.64;23.74
50933;BME280;36921;49.006;9.292;2023-03-18T09:46:08;98407.63;;;34.06;23.64
50933;BME280;36921;49.006;9.292;2023-03-18T09:48:39;98401.16;;;35.90;22.95
50933;BME280;36921;49.006;9.292;2023-03-18T09:53:49;98392.13;;;36.07;21.64
50933;BME280;36921;49.006;9.292;2023-03-18T09:56:21;98404.88;;;34.10;23.10
50933;BME280;36921;49.006;9.292;2023-03-18T09:59:05;98389.56;;;34.92;22.97
50933;BME280;36921;49.006;9.292;2023-03-18T10:01:41;98395.91;;;31.57;24.72
50933;BME280;36921;49.006;9.292;2023-03-18T10:04:32;98393.78;;;32.79;24.02
50933;BME280;36921;49.006;9.292;2023-03-18T10:07:06;98385.00;;;35.07;23.59
50933;BME280;36921;49.006;9.292;2023-03-18T10:09:45;98395.44;;;36.91;22.53
50933;BME280;36921;49.006;9.292;2023-03-18T10:17:42;98379.16;;;36.36;22.40
50933;BME280;36921;49.006;9.292;2023-03-18T10:20:18;98374.28;;;38.94;20.47
50933;BME280;36921;49.006;9.292;2023-03-18T10:25:46;98384.84;;;37.84;21.56
50933;BME280;36921;49.006;9.292;2023-03-18T10:28:46;98381.09;;;38.50;20.16
50933;BME280;36921;49.006;9.292;2023-03-18T10:34:01;98384.78;;;37.11;22.29
50933;BME280;36921;49.006;9.292;2023-03-18T10:36:49;98382.38;;;38.99;21.02
50933;BME280;36921;49.006;9.292;2023-03-18T10:39:18;98380.09;;;40.21;20.16
50933;BME280;36921;49.006;9.292;2023-03-18T10:41:48;98380.38;;;40.45;19.93
50933;BME280;36921;49.006;9.292;2023-03-18T10:44:34;98381.94;;;38.93;19.56
50933;BME280;36921;49.006;9.292;2023-03-18T10:49:50;98372.81;;;40.13;19.72
50933;BME280;36921;49.006;9.292;2023-03-18T10:52:33;98363.72;;;40.54;19.84
50933;BME280;36921;49.006;9.292;2023-03-18T10:55:02;98364.19;;;41.01;20.27
50933;BME280;36921;49.006;9.292;2023-03-18T10:57:28;98358.44;;;41.50;19.21
50933;BME280;36921;49.006;9.292;2023-03-18T10:59:54;98356.38;;;40.60;19.73
50933;BME280;36921;49.006;9.292;2023-03-18T11:02:35;98352.09;;;35.61;21.51
50933;BME280;36921;49.006;9.292;2023-03-18T11:05:12;98353.44;;;34.67;22.23
50933;BME280;36921;49.006;9.292;2023-03-18T11:08:31;98356.34;;;34.09;23.25
50933;BME280;36921;49.006;9.292;2023-03-18T11:13:46;98348.34;;;34.77;22.94
50933;BME280;36921;49.006;9.292;2023-03-18T11:18:48;98342.91;;;36.31;21.38
50933;BME280;36921;49.006;9.292;2023-03-18T11:21:15;98341.91;;;36.54;21.13
50933;BME280;36921;49.006;9.292;2023-03-18T11:23:55;98325.69;;;36.03;21.49
50933;BME280;36921;49.006;9.292;2023-03-18T11:26:48;98348.66;;;34.06;22.48
50933;BME280;36921;49.006;9.292;2023-03-18T11:29:20;98350.50;;;33.98;23.09
50933;BME280;36921;49.006;9.292;2023-03-18T11:31:53;98340.06;;;33.09;23.44
50933;BME280;36921;49.006;9.292;2023-03-18T11:34:23;98344.19;;;34.05;23.38
50933;BME280;36921;49.006;9.292;2023-03-18T11:36:57;98327.25;;;34.40;22.28
50933;BME280;36921;49.006;9.292;2023-03-18T11:39:31;98325.78;;;34.96;22.60
50933;BME280;36921;49.006;9.292;2023-03-18T11:41:58;98315.97;;;33.98;22.55
50933;BME280;36921;49.006;9.292;2023-03-18T11:44:30;98324.53;;;33.47;22.77
50933;BME280;36921;49.006;9.292;2023-03-18T11:47:07;98316.34;;;34.16;22.55
50933;BME280;36921;49.006;9.292;2023-03-18T11:49:35;98326.13;;;32.33;23.42
50933;BME280;36921;49.006;9.292;2023-03-18T11:58:26;98309.25;;;31.33;24.20
50933;BME280;36921;49.006;9.292;2023-03-18T12:01:41;98301.78;;;31.77;24.37
50933;BME280;36921;49.006;9.292;2023-03-18T12:04:25;98296.50;;;33.11;24.06
50933;BME280;36921;49.006;9.292;2023-03-18T12:09:27;98285.72;;;33.13;23.59
50933;BME280;36921;49.006;9.292;2023-03-18T12:12:05;98277.91;;;32.87;23.65
50933;BME280;36921;49.006;9.292;2023-03-18T12:22:46;98282.59;;;31.23;24.10
50933;BME280;36921;49.006;9.292;2023-03-18T12:28:14;98290.63;;;32.05;23.60
50933;BME280;36921;49.006;9.292;2023-03-18T12:33:56;98284.47;;;29.03;26.12
50933;BME280;36921;49.006;9.292;2023-03-18T12:42:22;98270.53;;;30.33;25.01
50933;BME280;36921;49.006;9.292;2023-03-18T12:47:44;98274.59;;;30.35;25.34
50933;BME280;36921;49.006;9.292;2023-03-18T12:50:18;98257.13;;;33.43;24.15
50933;BME280;36921;49.006;9.292;2023-03-18T12:53:25;98263.09;;;31.79;23.88
50933;BME280;36921;49.006;9.292;2023-03-18T12:55:57;98253.16;;;33.83;23.22
50933;BME280;36921;49.006;9.292;2023-03-18T12:58:37;98253.63;;;35.98;21.96
50933;BME280;36921;49.006;9.292;2023-03-18T13:04:30;98243.19;;;35.65;21.50
50933;BME280;36921;49.006;9.292;2023-03-18T13:09:46;98243.44;;;31.35;24.46
50933;BME280;36921;49.006;9.292;2023-03-18T13:17:56;98238.25;;;31.21;24.47
50933;BME280;36921;49.006;9.292;2023-03-18T13:20:35;98237.72;;;30.79;25.09
50933;BME280;36921;49.006;9.292;2023-03-18T13:25:47;98227.47;;;31.92;24.01
50933;BME280;36921;49.006;9.292;2023-03-18T13:28:59;98228.34;;;30.34;24.97
50933;BME280;36921;49.006;9.292;2023-03-18T13:37:34;98215.69;;;29.91;25.74
50933;BME280;36921;49.006;9.292;2023-03-18T13:42:39;98216.47;;;30.50;25.36
50933;BME280;36921;49.006;9.292;2023-03-18T13:45:22;98222.94;;;30.91;25.72
50933;BME280;36921;49.006;9.292;2023-03-18T13:47:56;98220.84;;;31.28;24.36
50933;BME280;36921;49.006;9.292;2023-03-18T13:50:43;98221.09;;;30.83;25.81
50933;BME280;36921;49.006;9.292;2023-03-18T13:53:28;98222.25;;;30.57;26.98
50933;BME280;36921;49.006;9.292;2023-03-18T14:03:20;98222.97;;;30.54;27.06
50933;BME280;36921;49.006;9.292;2023-03-18T14:16:14;98218.59;;;32.02;24.72
50933;BME280;36921;49.006;9.292;2023-03-18T14:19:00;98209.72;;;32.64;24.79
50933;BME280;36921;49.006;9.292;2023-03-18T14:21:27;98209.81;;;32.20;24.54
50933;BME280;36921;49.006;9.292;2023-03-18T14:24:08;98205.09;;;31.36;25.29
50933;BME280;36921;49.006;9.292;2023-03-18T14:26:35;98203.25;;;31.68;25.68
50933;BME280;36921;49.006;9.292;2023-03-18T14:34:01;98196.94;;;30.50;26.36
50933;BME280;36921;49.006;9.292;2023-03-18T14:39:12;98200.94;;;28.14;28.11
50933;BME280;36921;49.006;9.292;2023-03-18T14:41:42;98198.84;;;27.38;29.08
50933;BME280;36921;49.006;9.292;2023-03-18T14:44:20;98199.63;;;26.69;29.95
50933;BME280;36921;49.006;9.292;2023-03-18T14:46:50;98199.97;;;26.67;29.44
50933;BME280;36921;49.006;9.292;2023-03-18T14:52:20;98193.44;;;26.15;30.87
50933;BME280;36921;49.006;9.292;2023-03-18T14:54:48;98187.34;;;25.73;31.64
50933;BME280;36921;49.006;9.292;2023-03-18T14:57:20;98184.22;;;25.43;31.95
50933;BME280;36921;49.006;9.292;2023-03-18T14:59:45;98184.94;;;25.12;32.33
50933;BME280;36921;49.006;9.292;2023-03-18T15:02:21;98181.03;;;24.55;32.59